Terminal Aerodrome Forecast
Issued by NWS Quad Cities IA IL

Home | Current Version | Previous Version | Text Only | Print | Product List | Glossary On
Versions: 1 2 3 4 5 6 7 8 9 10 11 12 13 14 15 16 17 18 19 20 21 22 23 24
750
FTUS43 KDVN 251120
TAFDBQ
TAF
KDBQ 251120Z 2512/2612 05016G24KT P6SM -RADZ BKN006 OVC015
     FM251400 06013KT 3SM -SHRA BR OVC005
     FM260600 06008KT 5SM BR OVC005=

USA.gov is the U.S. government's official web portal to all federal, state and local government web resources and services.